createdAt,value
2023-02-11T00:00:59.845Z,29.67
2023-02-11T00:03:26.697Z,29.38
2023-02-11T00:06:04.593Z,30.98
2023-02-11T00:08:31.504Z,29.25
2023-02-11T00:10:58.795Z,28.55
2023-02-11T00:13:25.922Z,29.55
2023-02-11T00:15:53.964Z,31.80
2023-02-11T00:18:21.293Z,32.22
2023-02-11T00:20:48.112Z,31.05
2023-02-11T00:23:14.919Z,30.70
2023-02-11T00:25:45.579Z,28.90
2023-02-11T00:28:12.910Z,34.65
2023-02-11T00:30:40.864Z,30.05
2023-02-11T00:33:08.558Z,28.80
2023-02-11T00:35:38.649Z,30.77
2023-02-11T00:38:08.081Z,27.90
2023-02-11T00:40:34.936Z,30.33
2023-02-11T00:43:03.536Z,31.88
2023-02-11T00:45:30.645Z,31.20
2023-02-11T00:47:57.944Z,28.48
2023-02-11T00:50:24.769Z,28.83
2023-02-11T00:52:51.545Z,30.27
2023-02-11T00:55:18.423Z,30.40
2023-02-11T00:57:45.162Z,28.92
2023-02-11T01:00:13.769Z,31.45
2023-02-11T01:02:40.566Z,25.25
2023-02-11T01:05:07.981Z,28.75
2023-02-11T01:07:34.787Z,29.40
2023-02-11T01:10:01.517Z,27.42
2023-02-11T01:12:30.095Z,29.70
2023-02-11T01:14:58.388Z,30.70
2023-02-11T01:17:25.224Z,34.63
2023-02-11T01:19:51.945Z,30.92
2023-02-11T01:22:18.762Z,31.85
2023-02-11T01:24:47.687Z,32.63
2023-02-11T01:27:14.448Z,30.35
2023-02-11T01:29:41.283Z,33.25
2023-02-11T01:32:08.248Z,32.05
2023-02-11T01:34:35.272Z,28.45
2023-02-11T01:37:02.491Z,33.67
2023-02-11T01:39:36.235Z,34.72
2023-02-11T01:42:03.073Z,33.00
2023-02-11T01:44:36.254Z,37.45
2023-02-11T01:47:06.236Z,39.55
2023-02-11T01:49:36.415Z,34.55
2023-02-11T01:52:17.580Z,34.08
2023-02-11T01:55:09.530Z,33.22
2023-02-11T01:57:38.814Z,29.55
2023-02-11T02:00:21.545Z,30.05
2023-02-11T02:03:09.755Z,27.23
2023-02-11T02:06:13.969Z,26.48
2023-02-11T02:08:45.724Z,35.72
2023-02-11T02:11:12.820Z,38.03
2023-02-11T02:13:39.629Z,36.55
2023-02-11T02:16:11.705Z,34.85
2023-02-11T02:18:44.245Z,33.80
2023-02-11T02:21:48.896Z,29.92
2023-02-11T02:24:22.944Z,27.90
2023-02-11T02:27:08.425Z,29.13
2023-02-11T02:30:08.414Z,29.02
2023-02-11T02:33:22.488Z,27.55
2023-02-11T02:36:14.008Z,25.23
2023-02-11T02:38:59.124Z,25.65
2023-02-11T02:41:30.585Z,25.05
2023-02-11T02:43:57.793Z,27.75
2023-02-11T02:46:30.760Z,28.25
2023-02-11T02:48:59.260Z,32.30
2023-02-11T02:51:49.738Z,40.03
2023-02-11T02:54:43.879Z,36.58
2023-02-11T02:57:37.129Z,30.75
2023-02-11T03:00:19.420Z,32.25
2023-02-11T03:03:13.523Z,31.58
2023-02-11T03:05:49.023Z,28.98
2023-02-11T03:08:38.039Z,28.27
2023-02-11T03:11:07.589Z,29.25
2023-02-11T03:13:36.618Z,30.13
2023-02-11T03:16:11.392Z,29.98
2023-02-11T03:18:41.831Z,29.73
2023-02-11T03:21:11.007Z,33.05
2023-02-11T03:23:51.526Z,41.80
2023-02-11T03:26:48.429Z,42.65
2023-02-11T03:29:37.547Z,39.50
2023-02-11T03:32:07.530Z,35.40
2023-02-11T03:34:44.019Z,35.20
2023-02-11T03:37:40.119Z,32.40
2023-02-11T03:40:15.392Z,31.23
2023-02-11T03:43:11.181Z,33.08
2023-02-11T03:45:39.388Z,33.85
2023-02-11T03:48:19.899Z,35.00
2023-02-11T03:50:48.523Z,25.38
2023-02-11T03:53:16.879Z,34.40
2023-02-11T03:55:47.088Z,35.42
2023-02-11T03:58:13.898Z,36.00
2023-02-11T04:00:43.457Z,32.28
2023-02-11T04:03:11.166Z,34.33
2023-02-11T04:05:38.552Z,33.25
2023-02-11T04:08:05.678Z,32.80
2023-02-11T04:10:32.449Z,28.83
2023-02-11T04:12:59.287Z,30.38
2023-02-11T04:15:26.281Z,29.55
2023-02-11T04:17:53.015Z,30.92
2023-02-11T04:20:19.918Z,29.73
2023-02-11T04:22:46.767Z,31.52
2023-02-11T04:25:13.655Z,29.92
2023-02-11T04:27:40.412Z,27.35
2023-02-11T04:30:08.509Z,28.17
2023-02-11T04:32:35.241Z,34.75
2023-02-11T04:35:02.845Z,43.75
2023-02-11T04:37:29.636Z,40.50
2023-02-11T04:39:56.565Z,49.00
2023-02-11T04:42:23.620Z,44.38
2023-02-11T04:44:50.406Z,44.17
2023-02-11T04:47:17.899Z,44.75
2023-02-11T04:49:44.678Z,46.97
2023-02-11T04:52:11.521Z,44.45
2023-02-11T04:54:38.340Z,43.92
2023-02-11T04:57:05.421Z,48.13
2023-02-11T04:59:32.450Z,41.72
2023-02-11T05:01:59.197Z,45.63
2023-02-11T05:04:26.117Z,45.47
2023-02-11T05:06:52.894Z,40.92
2023-02-11T05:09:19.735Z,47.30
2023-02-11T05:11:46.486Z,42.88
2023-02-11T05:14:13.262Z,45.17
2023-02-11T05:16:40.144Z,43.83
2023-02-11T05:19:06.929Z,45.83
2023-02-11T05:21:34.056Z,41.55
2023-02-11T05:24:01.023Z,45.15
2023-02-11T05:26:27.901Z,49.72
2023-02-11T05:28:54.753Z,50.88
2023-02-11T05:31:21.523Z,46.83
2023-02-11T05:33:48.339Z,45.72
2023-02-11T05:36:15.933Z,43.65
2023-02-11T05:38:43.373Z,42.40
2023-02-11T05:41:12.997Z,43.83
2023-02-11T05:43:39.828Z,40.03
2023-02-11T05:46:06.897Z,37.17
2023-02-11T05:48:33.751Z,40.13
2023-02-11T05:51:00.584Z,32.95
2023-02-11T05:53:27.330Z,31.13
2023-02-11T05:55:54.395Z,24.35
2023-02-11T05:58:21.402Z,32.35
2023-02-11T06:00:48.126Z,36.45
2023-02-11T06:03:14.919Z,43.53
2023-02-11T06:05:43.915Z,42.47
2023-02-11T06:08:10.923Z,45.00
2023-02-11T06:10:38.106Z,42.33
2023-02-11T06:13:05.046Z,43.35
2023-02-11T06:15:31.801Z,43.97
2023-02-11T06:17:59.032Z,42.47
2023-02-11T06:20:25.858Z,43.58
2023-02-11T06:22:52.598Z,41.78
2023-02-11T06:25:19.423Z,41.47
2023-02-11T06:27:46.283Z,42.08
2023-02-11T06:30:13.857Z,40.15
2023-02-11T06:32:45.448Z,37.85
2023-02-11T06:35:14.348Z,36.85
2023-02-11T06:37:41.847Z,40.35
2023-02-11T06:40:09.558Z,40.47
2023-02-11T06:42:38.653Z,43.05
2023-02-11T06:45:09.450Z,39.92
2023-02-11T06:47:36.699Z,41.55
2023-02-11T06:50:03.717Z,40.25
2023-02-11T06:52:30.494Z,43.40
2023-02-11T06:54:57.216Z,41.78
2023-02-11T06:57:23.992Z,41.80
2023-02-11T06:59:51.032Z,39.67
2023-02-11T07:02:20.640Z,38.30
2023-02-11T07:04:47.822Z,38.30
2023-02-11T07:07:14.588Z,40.20
2023-02-11T07:09:41.669Z,45.45
2023-02-11T07:12:10.362Z,42.45
2023-02-11T07:14:37.169Z,38.38
2023-02-11T07:17:04.806Z,35.28
2023-02-11T07:19:32.027Z,33.65
2023-02-11T07:21:58.767Z,31.35
2023-02-11T07:24:25.514Z,42.80
2023-02-11T07:26:53.597Z,42.63
2023-02-11T07:29:20.351Z,39.13
2023-02-11T07:31:47.307Z,35.50
2023-02-11T07:34:14.489Z,40.03
2023-02-11T07:36:43.627Z,37.85
2023-02-11T07:39:10.631Z,38.25
2023-02-11T07:41:38.466Z,39.17
2023-02-11T07:44:05.467Z,44.55
2023-02-11T07:46:32.901Z,42.65
2023-02-11T07:49:00.000Z,40.63
2023-02-11T07:51:31.420Z,40.45
2023-02-11T07:53:59.970Z,39.67
2023-02-11T07:56:28.411Z,36.92
2023-02-11T07:58:59.710Z,38.55
2023-02-11T08:01:28.630Z,30.73
2023-02-11T08:03:57.031Z,37.55
2023-02-11T08:06:26.169Z,35.67
2023-02-11T08:08:53.624Z,39.03
2023-02-11T08:11:27.081Z,37.00
2023-02-11T08:13:55.014Z,40.45
2023-02-11T08:16:30.799Z,40.00
2023-02-11T08:18:59.474Z,39.40
2023-02-11T08:21:26.880Z,33.83
2023-02-11T08:23:54.654Z,37.03
2023-02-11T08:26:27.098Z,38.13
2023-02-11T08:28:55.850Z,37.63
2023-02-11T08:31:27.943Z,37.58
2023-02-11T08:33:57.822Z,36.53
2023-02-11T08:36:41.799Z,34.65
2023-02-11T08:39:21.218Z,37.90
2023-02-11T08:41:50.321Z,34.55
2023-02-11T08:44:18.654Z,35.55
2023-02-11T08:46:45.832Z,32.13
2023-02-11T08:49:12.682Z,34.55
2023-02-11T08:51:44.688Z,29.83
2023-02-11T08:54:11.755Z,30.13
2023-02-11T08:56:39.494Z,32.38
2023-02-11T08:59:07.439Z,28.55
2023-02-11T09:01:34.931Z,28.88
2023-02-11T09:04:01.818Z,29.60
2023-02-11T09:06:29.414Z,33.97
2023-02-11T09:08:57.779Z,30.73
2023-02-11T09:11:43.766Z,34.75
2023-02-11T09:14:21.193Z,34.70
2023-02-11T09:16:48.395Z,30.45
2023-02-11T09:19:15.452Z,31.05
2023-02-11T09:21:42.188Z,32.63
2023-02-11T09:24:09.182Z,31.40
2023-02-11T09:26:37.132Z,32.85
2023-02-11T09:29:05.485Z,34.90
2023-02-11T09:31:34.368Z,36.97
2023-02-11T09:34:05.890Z,32.97
2023-02-11T09:36:37.589Z,32.85
2023-02-11T09:39:07.761Z,32.60
2023-02-11T09:42:07.859Z,31.05
2023-02-11T09:44:36.476Z,33.97
2023-02-11T09:47:07.000Z,30.02
2023-02-11T09:49:40.934Z,30.90
2023-02-11T09:52:39.461Z,34.47
2023-02-11T09:55:19.429Z,29.40
2023-02-11T09:57:46.575Z,29.52
2023-02-11T10:00:25.692Z,33.58
2023-02-11T10:03:16.731Z,30.20
2023-02-11T10:05:57.768Z,25.25
2023-02-11T10:08:47.554Z,26.02
2023-02-11T10:11:36.822Z,28.80
2023-02-11T10:14:15.707Z,27.80
2023-02-11T10:16:50.756Z,27.02
2023-02-11T10:19:45.429Z,26.13
2023-02-11T10:22:16.957Z,25.57
2023-02-11T10:24:51.673Z,23.13
2023-02-11T10:29:57.310Z,32.30
2023-02-11T10:32:39.281Z,27.25
2023-02-11T10:35:15.538Z,24.35
2023-02-11T10:37:44.467Z,21.92
2023-02-11T10:40:29.254Z,18.00
2023-02-11T10:42:59.765Z,18.25
2023-02-11T10:45:43.240Z,20.13
2023-02-11T10:48:51.741Z,20.67
2023-02-11T10:51:35.500Z,25.10
2023-02-11T10:54:05.388Z,22.70
2023-02-11T10:56:36.204Z,22.08
2023-02-11T10:59:07.609Z,21.60
2023-02-11T11:02:00.523Z,19.63
2023-02-11T11:04:30.496Z,18.83
2023-02-11T11:07:09.284Z,19.77
2023-02-11T11:10:17.924Z,17.15
2023-02-11T11:12:51.685Z,17.95
2023-02-11T11:15:22.113Z,17.92
2023-02-11T11:17:49.834Z,17.60
2023-02-11T11:20:20.460Z,17.15
2023-02-11T11:22:49.871Z,17.38
2023-02-11T11:25:29.505Z,17.00
2023-02-11T11:27:59.609Z,18.42
2023-02-11T11:30:39.330Z,18.63
2023-02-11T11:33:21.286Z,19.00
2023-02-11T11:36:07.415Z,15.93
2023-02-11T11:38:37.371Z,17.10
2023-02-11T11:41:31.579Z,20.70
2023-02-11T11:44:22.261Z,20.40
2023-02-11T11:46:56.041Z,17.65
2023-02-11T11:49:32.776Z,19.38
2023-02-11T11:52:09.576Z,18.35
2023-02-11T11:54:38.323Z,19.02
2023-02-11T11:57:18.635Z,20.58
2023-02-11T11:59:45.843Z,20.80
2023-02-11T12:02:34.217Z,18.90
2023-02-11T12:05:02.958Z,22.17
2023-02-11T12:07:44.928Z,23.13
2023-02-11T12:10:14.739Z,22.67
2023-02-11T12:13:04.553Z,24.40
2023-02-11T12:16:06.960Z,29.88
2023-02-11T12:18:47.358Z,26.48
2023-02-11T12:21:29.535Z,34.28
2023-02-11T12:23:59.404Z,33.05
2023-02-11T12:26:53.105Z,27.85
2023-02-11T12:29:55.060Z,33.97
2023-02-11T12:32:33.892Z,34.00
2023-02-11T12:35:18.064Z,31.95
2023-02-11T12:38:09.930Z,32.60
2023-02-11T12:41:10.177Z,31.52
2023-02-11T12:43:39.719Z,29.63
2023-02-11T12:46:12.338Z,29.48
2023-02-11T12:49:02.990Z,25.92
2023-02-11T12:51:44.671Z,28.52
2023-02-11T12:54:33.132Z,24.58
2023-02-11T12:57:05.705Z,27.95
2023-02-11T12:59:44.692Z,22.13
2023-02-11T13:02:34.829Z,23.30
2023-02-11T13:05:12.630Z,21.35
2023-02-11T13:07:45.324Z,20.90
2023-02-11T13:10:32.595Z,20.92
2023-02-11T13:13:16.927Z,19.20
2023-02-11T13:15:48.662Z,22.07
2023-02-11T13:18:31.686Z,21.15
2023-02-11T13:20:58.404Z,19.70
2023-02-11T13:23:39.500Z,17.42
2023-02-11T13:26:10.295Z,19.65
2023-02-11T13:28:54.027Z,18.02
2023-02-11T13:31:20.989Z,16.58
2023-02-11T13:33:49.806Z,19.63
2023-02-11T13:36:19.369Z,19.60
2023-02-11T13:38:58.885Z,17.48
2023-02-11T13:41:38.922Z,17.70
2023-02-11T13:44:08.670Z,18.35
2023-02-11T13:46:54.110Z,18.27
2023-02-11T13:49:25.355Z,19.38
2023-02-11T13:51:53.903Z,18.30
2023-02-11T13:54:31.248Z,16.77
2023-02-11T13:57:20.013Z,16.48
2023-02-11T14:00:06.765Z,18.35
2023-02-11T14:02:57.036Z,16.10
2023-02-11T14:05:48.548Z,14.25
2023-02-11T14:08:39.085Z,18.13
2023-02-11T14:11:14.635Z,16.80
2023-02-11T14:13:47.413Z,19.92
2023-02-11T14:16:36.427Z,17.90
2023-02-11T14:19:04.643Z,17.35
2023-02-11T14:21:41.520Z,22.67
2023-02-11T14:24:11.614Z,23.20
2023-02-11T14:27:04.888Z,21.00
2023-02-11T14:29:41.287Z,23.02
2023-02-11T14:32:19.317Z,23.55
2023-02-11T14:34:52.061Z,24.15
2023-02-11T14:37:39.923Z,25.60
2023-02-11T14:40:16.314Z,22.83
2023-02-11T14:42:43.390Z,23.23
2023-02-11T14:45:16.429Z,22.10
2023-02-11T14:47:55.351Z,23.08
2023-02-11T14:50:31.853Z,27.30
2023-02-11T14:53:01.632Z,24.38
2023-02-11T14:55:33.337Z,26.20
2023-02-11T14:58:19.179Z,25.48
2023-02-11T15:00:58.007Z,28.20
2023-02-11T15:03:33.519Z,25.98
2023-02-11T15:06:04.215Z,23.98
2023-02-11T15:08:31.738Z,22.80
2023-02-11T15:11:00.668Z,20.75
2023-02-11T15:13:31.101Z,21.08
2023-02-11T15:16:09.861Z,22.63
2023-02-11T15:18:43.640Z,20.45
2023-02-11T15:21:10.734Z,20.52
2023-02-11T15:23:37.528Z,21.63
2023-02-11T15:26:19.277Z,20.52
2023-02-11T15:28:52.148Z,20.15
2023-02-11T15:31:23.300Z,19.98
2023-02-11T15:33:51.445Z,19.92
2023-02-11T15:36:21.833Z,15.80
2023-02-11T15:39:18.573Z,17.35
2023-02-11T15:41:45.585Z,16.42
2023-02-11T15:44:32.955Z,16.52
2023-02-11T15:47:13.433Z,17.23
2023-02-11T15:49:47.821Z,17.83
2023-02-11T15:52:22.790Z,18.60
2023-02-11T15:54:49.984Z,15.57
2023-02-11T15:57:17.878Z,16.77
2023-02-11T15:59:52.074Z,16.02
2023-02-11T16:02:33.609Z,17.85
2023-02-11T16:05:06.904Z,15.40
2023-02-11T16:07:44.530Z,17.38
2023-02-11T16:10:17.408Z,17.85
2023-02-11T16:13:11.407Z,17.10
2023-02-11T16:15:44.836Z,17.45
2023-02-11T16:18:38.344Z,18.00
2023-02-11T16:21:14.732Z,16.73
2023-02-11T16:23:42.481Z,17.10
2023-02-11T16:26:29.456Z,17.13
2023-02-11T16:29:10.218Z,16.40
2023-02-11T16:31:40.685Z,16.10
2023-02-11T16:34:20.509Z,17.20
2023-02-11T16:36:54.174Z,15.82
2023-02-11T16:39:22.420Z,14.80
2023-02-11T16:41:50.812Z,16.67
2023-02-11T16:44:18.264Z,15.88
2023-02-11T16:46:45.779Z,17.55
2023-02-11T16:49:23.687Z,17.25
2023-02-11T16:51:52.786Z,18.60
2023-02-11T16:54:20.235Z,16.10
2023-02-11T16:56:47.016Z,17.15
2023-02-11T16:59:13.849Z,16.23
2023-02-11T17:01:42.179Z,16.15
2023-02-11T17:04:19.631Z,17.15
2023-02-11T17:06:48.143Z,16.38
2023-02-11T17:09:30.303Z,15.77
2023-02-11T17:11:57.742Z,18.15
2023-02-11T17:14:24.814Z,15.35
2023-02-11T17:16:51.934Z,16.75
2023-02-11T17:19:21.086Z,19.00
2023-02-11T17:21:49.964Z,15.88
2023-02-11T17:24:18.036Z,18.38
2023-02-11T17:26:46.157Z,18.20
2023-02-11T17:29:15.998Z,17.17
2023-02-11T17:31:42.960Z,15.93
2023-02-11T17:34:09.951Z,17.00
2023-02-11T17:36:37.106Z,17.65
2023-02-11T17:39:07.817Z,15.98
2023-02-11T17:41:36.451Z,17.08
2023-02-11T17:44:04.153Z,16.63
2023-02-11T17:46:32.130Z,17.00
2023-02-11T17:48:59.559Z,17.30
2023-02-11T17:51:34.190Z,18.75
2023-02-11T17:54:07.912Z,17.98
2023-02-11T17:56:36.701Z,21.10
2023-02-11T17:59:04.972Z,17.15
2023-02-11T18:01:33.469Z,18.05
2023-02-11T18:04:00.597Z,19.73
2023-02-11T18:06:29.082Z,20.10
2023-02-11T18:08:59.533Z,17.45
2023-02-11T18:11:27.806Z,17.33
2023-02-11T18:13:54.645Z,15.98
2023-02-11T18:16:23.466Z,17.42
2023-02-11T18:18:54.539Z,16.27
2023-02-11T18:21:29.671Z,16.08
2023-02-11T18:24:06.783Z,16.42
2023-02-11T18:26:36.963Z,16.73
2023-02-11T18:29:06.358Z,17.50
2023-02-11T18:31:35.188Z,17.85
2023-02-11T18:34:08.141Z,16.13
2023-02-11T18:36:35.871Z,14.93
2023-02-11T18:39:03.729Z,14.23
2023-02-11T18:41:30.583Z,16.65
2023-02-11T18:43:58.653Z,16.55
2023-02-11T18:46:25.498Z,14.75
2023-02-11T18:48:55.999Z,16.17
2023-02-11T18:51:23.270Z,18.60
2023-02-11T18:53:50.123Z,16.13
2023-02-11T18:56:20.364Z,17.33
2023-02-11T18:58:47.672Z,16.45
2023-02-11T19:01:20.931Z,15.80
2023-02-11T19:03:51.099Z,15.23
2023-02-11T19:06:26.658Z,14.90
2023-02-11T19:08:57.453Z,15.15
2023-02-11T19:11:45.468Z,15.27
2023-02-11T19:14:13.908Z,15.55
2023-02-11T19:16:42.783Z,14.60
2023-02-11T19:19:09.879Z,16.58
2023-02-11T19:21:36.817Z,13.25
2023-02-11T19:24:07.742Z,14.30
2023-02-11T19:26:35.482Z,15.52
2023-02-11T19:29:03.457Z,13.98
2023-02-11T19:31:32.236Z,13.32
2023-02-11T19:33:59.964Z,14.25
2023-02-11T19:36:26.957Z,14.13
2023-02-11T19:38:54.020Z,13.68
2023-02-11T19:41:23.067Z,16.48
2023-02-11T19:43:53.409Z,18.33
2023-02-11T19:46:21.361Z,18.60
2023-02-11T19:48:49.250Z,21.40
2023-02-11T19:51:16.209Z,20.58
2023-02-11T19:53:44.220Z,21.40
2023-02-11T19:56:11.173Z,23.45
2023-02-11T19:58:39.048Z,21.70
2023-02-11T20:01:25.602Z,19.67
2023-02-11T20:03:53.866Z,21.00
2023-02-11T20:06:24.165Z,23.75
2023-02-11T20:09:00.343Z,21.88
2023-02-11T20:11:30.159Z,22.02
2023-02-11T20:13:57.879Z,24.67
2023-02-11T20:16:41.044Z,29.38
2023-02-11T20:19:16.805Z,24.15
2023-02-11T20:21:46.706Z,22.70
2023-02-11T20:24:20.997Z,21.17
2023-02-11T20:26:57.950Z,24.90
2023-02-11T20:29:25.737Z,19.17
2023-02-11T20:31:53.398Z,21.50
2023-02-11T20:34:21.684Z,19.88
2023-02-11T20:36:54.940Z,25.13
2023-02-11T20:39:29.968Z,22.17
2023-02-11T20:42:03.635Z,25.48
2023-02-11T20:44:30.343Z,22.95
2023-02-11T20:46:57.108Z,24.70
2023-02-11T20:49:24.550Z,20.48
2023-02-11T20:51:53.549Z,19.20
2023-02-11T20:54:21.831Z,17.70
2023-02-11T20:56:50.629Z,17.95
2023-02-11T20:59:19.279Z,19.15
2023-02-11T21:01:49.178Z,18.45
2023-02-11T21:04:19.117Z,20.42
2023-02-11T21:06:52.236Z,21.27
2023-02-11T21:09:21.554Z,20.48
2023-02-11T21:11:49.333Z,21.23
2023-02-11T21:14:16.083Z,19.35
2023-02-11T21:16:42.912Z,20.42
2023-02-11T21:19:09.747Z,22.50
2023-02-11T21:21:37.908Z,23.45
2023-02-11T21:24:06.540Z,21.50
2023-02-11T21:26:35.248Z,24.25
2023-02-11T21:29:03.384Z,20.70
2023-02-11T21:31:32.847Z,20.35
2023-02-11T21:33:59.697Z,24.92
2023-02-11T21:36:28.758Z,24.15
2023-02-11T21:38:56.114Z,23.05
2023-02-11T21:41:23.181Z,20.88
2023-02-11T21:43:50.667Z,28.05
2023-02-11T21:46:18.491Z,25.30
2023-02-11T21:48:45.567Z,25.90
2023-02-11T21:51:19.141Z,25.65
2023-02-11T21:53:46.384Z,20.48
2023-02-11T21:56:18.183Z,19.55
2023-02-11T21:58:46.043Z,19.13
2023-02-11T22:01:18.425Z,18.75
2023-02-11T22:03:46.473Z,20.65
2023-02-11T22:06:15.939Z,18.48
2023-02-11T22:08:43.276Z,16.63
2023-02-11T22:11:12.425Z,18.27
2023-02-11T22:13:40.243Z,18.75
2023-02-11T22:16:11.182Z,20.33
2023-02-11T22:18:38.769Z,20.45
2023-02-11T22:21:11.610Z,31.73
2023-02-11T22:23:39.855Z,29.70
2023-02-11T22:26:09.448Z,28.27
2023-02-11T22:28:38.945Z,30.25
2023-02-11T22:31:15.934Z,23.70
2023-02-11T22:33:43.301Z,26.02
2023-02-11T22:36:23.229Z,21.52
2023-02-11T22:38:51.121Z,22.48
2023-02-11T22:41:19.209Z,19.33
2023-02-11T22:43:45.994Z,18.98
2023-02-11T22:46:16.614Z,20.42
2023-02-11T22:48:43.554Z,18.08
2023-02-11T22:51:14.116Z,19.42
2023-02-11T22:53:41.207Z,18.10
2023-02-11T22:56:10.316Z,18.77
2023-02-11T22:58:37.341Z,17.77
2023-02-11T23:01:05.955Z,19.30
2023-02-11T23:03:34.307Z,19.20
2023-02-11T23:06:01.487Z,18.52
2023-02-11T23:08:30.760Z,21.95
2023-02-11T23:11:07.575Z,19.30
2023-02-11T23:13:36.523Z,21.67
2023-02-11T23:16:05.567Z,19.70
2023-02-11T23:18:32.713Z,20.65
2023-02-11T23:21:05.632Z,22.25
2023-02-11T23:23:32.988Z,23.77
2023-02-11T23:26:00.429Z,23.08
2023-02-11T23:28:27.477Z,22.48
2023-02-11T23:30:54.325Z,21.45
2023-02-11T23:33:21.419Z,21.35
2023-02-11T23:35:48.499Z,22.65
2023-02-11T23:38:15.490Z,21.33
2023-02-11T23:40:42.600Z,21.90
2023-02-11T23:43:09.464Z,25.08
2023-02-11T23:45:36.247Z,24.98
2023-02-11T23:48:03.021Z,26.10
2023-02-11T23:50:30.190Z,25.33
2023-02-11T23:52:56.921Z,29.10
2023-02-11T23:55:24.022Z,25.40
2023-02-11T23:57:50.866Z,27.63
